Time;durP1;ratioP1;P1;durP2;ratioP2;P2;SDS_P1;SDS_P2;PMS_P1;PMS_P2;Temp;Humidity;BMP_temperature;BMP_pressure;BME280_temperature;BME280_humidity;BME280_pressure;Samples;Min_cycle;Max_cycle;Signal;HPM_P1;HPM_P2
2022/04/12 00:00:10;;;;;;;25.80;11.50;;;;;;;;;;5028172;28;20429;-67
2022/04/12 00:02:40;;;;;;;26.27;12.03;;;;;;;;;;5029009;28;20441;-67
2022/04/12 00:05:07;;;;;;;26.93;11.83;;;;;;;;;;5028860;28;20489;-67
2022/04/12 00:07:53;;;;;;;30.47;12.73;;;;;;;;;;5029551;28;20457;-67
2022/04/12 00:10:20;;;;;;;27.73;13.07;;;;;;;;;;5028315;28;20430;-67
2022/04/12 00:12:47;;;;;;;31.60;12.17;;;;;;;;;;5028004;28;20434;-67
2022/04/12 00:15:14;;;;;;;31.20;12.70;;;;;;;;;;5029174;28;20475;-67
2022/04/12 00:20:26;;;;;;;26.80;10.97;;;;;;;;;;5027621;28;20446;-67
2022/04/12 00:22:53;;;;;;;29.87;11.77;;;;;;;;;;5029257;28;20434;-67
2022/04/12 00:25:22;;;;;;;25.63;11.60;;;;;;;;;;5028957;28;20442;-67
2022/04/12 00:27:52;;;;;;;25.77;10.60;;;;;;;;;;5029291;28;20469;-67
2022/04/12 00:30:19;;;;;;;25.33;11.30;;;;;;;;;;5029082;28;20767;-67
2022/04/12 00:32:46;;;;;;;20.87;9.77;;;;;;;;;;5029110;28;20442;-67
2022/04/12 00:35:30;;;;;;;22.80;10.10;;;;;;;;;;5035726;28;20516;-67
2022/04/12 00:37:57;;;;;;;23.47;9.87;;;;;;;;;;5035949;28;20457;-67
2022/04/12 00:40:24;;;;;;;17.67;8.83;;;;;;;;;;5044378;28;20433;-67
2022/04/12 00:42:51;;;;;;;21.60;9.10;;;;;;;;;;5048301;28;20468;-67
2022/04/12 00:45:17;;;;;;;20.83;8.47;;;;;;;;;;5048663;28;20440;-67
2022/04/12 00:47:44;;;;;;;23.20;9.43;;;;;;;;;;5048196;28;20555;-67
2022/04/12 00:50:11;;;;;;;23.07;9.93;;;;;;;;;;5048099;28;20437;-68
2022/04/12 00:52:39;;;;;;;18.83;9.17;;;;;;;;;;5030290;28;20445;-67
2022/04/12 00:55:06;;;;;;;17.83;8.53;;;;;;;;;;5027504;28;20524;-67
2022/04/12 00:57:32;;;;;;;19.00;8.90;;;;;;;;;;5028666;28;20434;-68
2022/04/12 00:59:59;;;;;;;14.53;7.50;;;;;;;;;;5027401;28;20430;-67
2022/04/12 01:02:44;;;;;;;19.20;8.47;;;;;;;;;;5027193;28;20418;-67
2022/04/12 01:38:03;;;;;;;22.93;9.90;;;;;;;;;;4774413;28;20971;-67
2022/04/12 01:40:30;;;;;;;21.97;10.13;;;;;;;;;;5034767;28;20446;-67
2022/04/12 01:42:56;;;;;;;22.37;9.67;;;;;;;;;;5028142;28;20434;-67
2022/04/12 01:45:26;;;;;;;26.33;9.37;;;;;;;;;;5028212;28;20446;-67
2022/04/12 01:47:53;;;;;;;20.03;9.67;;;;;;;;;;5027904;28;20510;-67
2022/04/12 01:50:19;;;;;;;19.13;9.77;;;;;;;;;;5028013;28;20438;-67
2022/04/12 01:52:46;;;;;;;26.63;11.17;;;;;;;;;;5027502;28;20480;-67
2022/04/12 01:55:30;;;;;;;19.13;9.30;;;;;;;;;;5027775;28;20501;-67
2022/04/12 01:57:57;;;;;;;26.50;10.47;;;;;;;;;;5028123;28;20429;-67
2022/04/12 02:00:42;;;;;;;24.70;10.37;;;;;;;;;;5027633;28;20433;-67
2022/04/12 02:03:09;;;;;;;25.17;10.07;;;;;;;;;;5027852;28;20508;-67
2022/04/12 02:05:54;;;;;;;24.03;9.93;;;;;;;;;;5026459;28;20417;-67
2022/04/12 02:08:21;;;;;;;25.30;10.13;;;;;;;;;;5027503;28;20530;-67
2022/04/12 02:10:48;;;;;;;20.60;9.73;;;;;;;;;;5027819;28;20437;-67
2022/04/12 02:13:16;;;;;;;22.57;9.73;;;;;;;;;;5027445;28;20422;-67
2022/04/12 02:15:43;;;;;;;26.50;9.87;;;;;;;;;;5031484;28;20817;-67
2022/04/12 02:18:10;;;;;;;22.33;9.47;;;;;;;;;;5040552;28;20445;-67
2022/04/12 02:20:37;;;;;;;25.77;10.60;;;;;;;;;;5051705;28;20440;-67
2022/04/12 02:23:03;;;;;;;22.30;9.63;;;;;;;;;;5051278;28;20428;-67
2022/04/12 02:25:30;;;;;;;17.30;9.23;;;;;;;;;;5051625;28;20482;-67
2022/04/12 02:27:57;;;;;;;20.67;9.03;;;;;;;;;;5051449;28;20974;-67
2022/04/12 02:30:23;;;;;;;16.70;8.30;;;;;;;;;;5051178;28;20434;-66
2022/04/12 02:32:50;;;;;;;15.07;7.50;;;;;;;;;;5033410;28;20421;-66
2022/04/12 02:35:17;;;;;;;18.37;8.03;;;;;;;;;;5051090;28;20440;-67
2022/04/12 02:37:43;;;;;;;19.37;8.83;;;;;;;;;;5050355;28;20465;-67
2022/04/12 02:40:10;;;;;;;17.13;8.03;;;;;;;;;;5050203;28;20449;-67
2022/04/12 02:42:37;;;;;;;15.07;7.13;;;;;;;;;;5049901;28;20792;-67
2022/04/12 02:45:04;;;;;;;16.23;8.47;;;;;;;;;;5049666;28;20429;-67
2022/04/12 02:47:30;;;;;;;20.90;7.07;;;;;;;;;;5050573;28;20468;-67
2022/04/12 02:49:57;;;;;;;17.00;7.13;;;;;;;;;;5050967;28;20438;-67
2022/04/12 02:52:24;;;;;;;15.90;7.63;;;;;;;;;;5050761;28;20444;-67
2022/04/12 02:54:50;;;;;;;14.33;7.50;;;;;;;;;;5050947;28;20433;-67
2022/04/12 02:57:17;;;;;;;23.70;8.70;;;;;;;;;;5050915;28;20429;-67
2022/04/12 02:59:44;;;;;;;20.33;7.00;;;;;;;;;;5039504;28;20961;-67
2022/04/12 03:02:10;;;;;;;16.57;7.57;;;;;;;;;;5030607;28;20427;-67
2022/04/12 03:04:41;;;;;;;20.57;8.43;;;;;;;;;;5029041;28;20414;-67
2022/04/12 03:07:08;;;;;;;22.37;8.97;;;;;;;;;;5031167;28;20473;-67
2022/04/12 03:09:35;;;;;;;20.67;9.00;;;;;;;;;;5030608;28;20513;-67
2022/04/12 03:12:02;;;;;;;18.33;8.43;;;;;;;;;;5030285;28;20492;-67
2022/04/12 03:14:29;;;;;;;22.40;8.37;;;;;;;;;;5030271;28;20430;-68
2022/04/12 03:16:56;;;;;;;21.13;8.27;;;;;;;;;;5030626;28;20429;-67
2022/04/12 03:19:23;;;;;;;24.40;9.10;;;;;;;;;;5030211;28;20495;-67
2022/04/12 03:21:49;;;;;;;21.10;8.53;;;;;;;;;;5030163;28;20958;-67
2022/04/12 03:24:16;;;;;;;20.57;8.83;;;;;;;;;;5030058;28;20434;-67
2022/04/12 03:26:43;;;;;;;16.53;7.57;;;;;;;;;;5029245;28;20568;-67
2022/04/12 03:29:09;;;;;;;19.70;8.60;;;;;;;;;;5030153;28;20422;-67
2022/04/12 03:31:36;;;;;;;21.07;8.57;;;;;;;;;;5030126;28;20430;-67
2022/04/12 03:34:03;;;;;;;16.50;8.20;;;;;;;;;;5030193;28;20461;-67
2022/04/12 03:36:30;;;;;;;17.20;9.13;;;;;;;;;;5047140;28;20451;-67
2022/04/12 03:38:57;;;;;;;16.77;8.47;;;;;;;;;;5049511;28;20500;-67
2022/04/12 03:41:23;;;;;;;19.13;8.13;;;;;;;;;;5029644;28;20789;-67
2022/04/12 03:43:51;;;;;;;17.03;8.13;;;;;;;;;;5029349;28;20444;-67
2022/04/12 03:46:34;;;;;;;22.20;8.37;;;;;;;;;;5029819;28;20450;-67
2022/04/12 03:49:01;;;;;;;18.57;7.87;;;;;;;;;;5029965;28;20421;-67
2022/04/12 03:51:45;;;;;;;19.43;8.20;;;;;;;;;;5029389;28;21326;-67
2022/04/12 03:54:12;;;;;;;16.70;7.37;;;;;;;;;;5029865;28;20422;-67
2022/04/12 03:56:39;;;;;;;16.57;7.70;;;;;;;;;;5028686;28;20438;-67
2022/04/12 03:59:05;;;;;;;15.73;7.47;;;;;;;;;;5029452;28;20441;-67
2022/04/12 04:01:32;;;;;;;19.30;7.30;;;;;;;;;;5028052;28;20532;-68
2022/04/12 04:04:18;;;;;;;20.40;7.20;;;;;;;;;;5044198;28;20425;-67
2022/04/12 04:06:45;;;;;;;17.33;7.37;;;;;;;;;;5016006;28;20481;-67
2022/04/12 04:09:29;;;;;;;15.70;7.73;;;;;;;;;;5040354;28;20468;-69
2022/04/12 04:11:56;;;;;;;13.67;7.17;;;;;;;;;;5025223;28;20445;-68
2022/04/12 04:14:42;;;;;;;15.83;7.47;;;;;;;;;;5041765;28;20528;-68
2022/04/12 04:17:09;;;;;;;14.60;7.53;;;;;;;;;;5023389;28;20432;-69
2022/04/12 04:19:36;;;;;;;15.00;7.10;;;;;;;;;;5042415;28;20459;-52
2022/04/12 04:22:04;;;;;;;14.40;6.67;;;;;;;;;;5042535;28;20859;-74
2022/04/12 04:24:34;;;;;;;16.23;6.93;;;;;;;;;;5039984;28;20441;-70
2022/04/12 04:27:19;;;;;;;14.43;7.80;;;;;;;;;;5039593;28;20468;-68
2022/04/12 04:29:47;;;;;;;15.67;7.53;;;;;;;;;;5041401;28;20514;-68
2022/04/12 04:32:14;;;;;;;16.27;7.73;;;;;;;;;;5041526;28;20499;-69
2022/04/12 04:34:40;;;;;;;18.07;7.40;;;;;;;;;;5041399;28;20433;-68
2022/04/12 04:37:07;;;;;;;14.03;6.90;;;;;;;;;;5041476;28;20743;-68
2022/04/12 04:39:34;;;;;;;13.33;6.77;;;;;;;;;;5040964;28;20792;-68
2022/04/12 04:42:01;;;;;;;19.43;7.30;;;;;;;;;;5042226;28;20540;-69
2022/04/12 04:44:28;;;;;;;15.50;7.17;;;;;;;;;;5011288;28;20495;-68
2022/04/12 04:46:54;;;;;;;19.73;7.00;;;;;;;;;;5034005;28;20464;-68
2022/04/12 04:49:21;;;;;;;19.30;8.30;;;;;;;;;;5037338;28;20450;-69
2022/04/12 04:51:48;;;;;;;15.37;7.13;;;;;;;;;;5028518;28;20450;-68
2022/04/12 04:54:14;;;;;;;15.87;6.83;;;;;;;;;;5028784;28;20430;-69
2022/04/12 04:56:41;;;;;;;15.87;7.07;;;;;;;;;;5030039;28;20525;-68
2022/04/12 04:59:10;;;;;;;16.73;7.33;;;;;;;;;;5028693;28;20933;-68
2022/04/12 05:01:54;;;;;;;16.53;7.50;;;;;;;;;;5029884;28;20475;-69
2022/04/12 05:04:21;;;;;;;16.30;7.33;;;;;;;;;;5043014;28;21020;-68
2022/04/12 05:06:48;;;;;;;14.13;7.57;;;;;;;;;;5068219;28;20460;-68
2022/04/12 05:09:15;;;;;;;20.70;8.30;;;;;;;;;;5067540;28;20489;-69
2022/04/12 05:11:41;;;;;;;16.00;7.90;;;;;;;;;;5068054;28;20438;-68
2022/04/12 05:14:26;;;;;;;16.27;7.80;;;;;;;;;;5067369;28;20439;-68
2022/04/12 05:16:52;;;;;;;14.30;7.27;;;;;;;;;;5046467;28;20532;-68
2022/04/12 05:19:19;;;;;;;18.70;7.27;;;;;;;;;;5029328;28;20504;-67
2022/04/12 05:21:46;;;;;;;19.17;8.13;;;;;;;;;;5028782;28;20537;-67
2022/04/12 05:24:13;;;;;;;15.00;7.50;;;;;;;;;;5038994;28;20449;-66
2022/04/12 05:26:41;;;;;;;14.33;6.70;;;;;;;;;;5039177;28;20438;-67
2022/04/12 05:29:08;;;;;;;17.50;7.33;;;;;;;;;;5038664;28;20445;-67
2022/04/12 05:31:35;;;;;;;18.30;6.83;;;;;;;;;;5039138;28;20506;-71
2022/04/12 05:34:02;;;;;;;17.47;7.70;;;;;;;;;;5044906;28;20437;-66
2022/04/12 05:36:29;;;;;;;15.30;7.27;;;;;;;;;;5046560;28;20523;-67
2022/04/12 05:38:56;;;;;;;18.90;8.53;;;;;;;;;;5047842;28;20512;-67
2022/04/12 05:41:23;;;;;;;19.50;7.60;;;;;;;;;;5027566;28;20423;-66
2022/04/12 05:43:50;;;;;;;17.90;8.60;;;;;;;;;;5027967;28;20446;-67
2022/04/12 05:46:17;;;;;;;16.77;7.60;;;;;;;;;;5028333;28;20790;-67
2022/04/12 05:48:43;;;;;;;14.13;7.10;;;;;;;;;;5028204;28;20482;-67
2022/04/12 05:51:10;;;;;;;18.00;7.07;;;;;;;;;;5028524;28;20940;-67
2022/04/12 05:53:38;;;;;;;13.23;6.90;;;;;;;;;;5040066;28;20433;-65
2022/04/12 05:56:05;;;;;;;20.23;7.00;;;;;;;;;;5045066;28;20475;-63
2022/04/12 05:58:35;;;;;;;13.70;6.50;;;;;;;;;;5045630;28;20439;-65
2022/04/12 06:01:03;;;;;;;11.37;6.27;;;;;;;;;;5045902;28;20435;-66
2022/04/12 06:03:30;;;;;;;14.40;6.23;;;;;;;;;;5045764;28;20444;-66
2022/04/12 06:05:57;;;;;;;14.03;5.53;;;;;;;;;;5051620;28;20491;-67
2022/04/12 06:08:23;;;;;;;13.47;5.77;;;;;;;;;;5051671;28;20520;-67
2022/04/12 06:11:09;;;;;;;19.03;7.90;;;;;;;;;;5050455;28;20425;-67
2022/04/12 06:13:36;;;;;;;21.83;9.93;;;;;;;;;;5052186;28;20493;-67
2022/04/12 06:16:21;;;;;;;24.60;9.87;;;;;;;;;;5051134;28;20417;-66
2022/04/12 06:18:47;;;;;;;25.53;9.53;;;;;;;;;;5051665;28;20413;-66
2022/04/12 06:21:14;;;;;;;17.23;7.97;;;;;;;;;;5051594;28;20836;-65
2022/04/12 06:23:43;;;;;;;21.63;8.67;;;;;;;;;;5051563;28;20975;-67
2022/04/12 06:26:10;;;;;;;15.60;6.33;;;;;;;;;;5051616;28;20429;-66
2022/04/12 06:28:37;;;;;;;16.00;7.57;;;;;;;;;;5051748;28;20823;-66
2022/04/12 06:31:04;;;;;;;17.60;6.30;;;;;;;;;;5051984;28;20799;-66
2022/04/12 06:33:31;;;;;;;17.73;6.20;;;;;;;;;;5050463;28;20425;-66
2022/04/12 06:35:58;;;;;;;13.70;5.03;;;;;;;;;;5051502;28;20273;-66
2022/04/12 06:38:30;;;;;;;12.10;5.07;;;;;;;;;;5051478;28;20468;-66
2022/04/12 06:40:57;;;;;;;11.83;4.63;;;;;;;;;;5051455;28;20197;-66
2022/04/12 06:43:41;;;;;;;10.93;4.60;;;;;;;;;;5051271;28;20563;-67
2022/04/12 06:46:08;;;;;;;8.17;4.03;;;;;;;;;;5051517;28;20194;-67
2022/04/12 06:48:53;;;;;;;11.60;4.17;;;;;;;;;;5051260;28;20290;-67
2022/04/12 06:51:20;;;;;;;11.83;3.83;;;;;;;;;;5051060;28;20899;-67
2022/04/12 06:53:50;;;;;;;6.83;3.43;;;;;;;;;;5051300;28;20236;-67
2022/04/12 06:56:20;;;;;;;8.63;3.30;;;;;;;;;;5051081;28;21048;-66
2022/04/12 06:58:47;;;;;;;8.60;3.73;;;;;;;;;;5049380;28;20662;-67
2022/04/12 07:01:13;;;;;;;9.03;3.37;;;;;;;;;;5051068;28;20198;-67
2022/04/12 07:03:41;;;;;;;8.03;3.00;;;;;;;;;;5050504;28;20194;-67
2022/04/12 07:06:25;;;;;;;5.10;2.40;;;;;;;;;;5050330;28;20193;-66
2022/04/12 07:08:52;;;;;;;6.93;2.70;;;;;;;;;;5050712;28;20301;-66
2022/04/12 07:11:36;;;;;;;8.43;2.97;;;;;;;;;;5050589;28;20661;-66
2022/04/12 07:14:03;;;;;;;7.47;2.67;;;;;;;;;;5050222;28;20285;-67
2022/04/12 07:16:48;;;;;;;7.17;3.07;;;;;;;;;;5050378;28;20166;-66
2022/04/12 07:19:14;;;;;;;8.27;2.60;;;;;;;;;;5050662;28;20179;-66
2022/04/12 07:21:41;;;;;;;14.20;5.63;;;;;;;;;;5050249;28;20196;-66
2022/04/12 07:24:08;;;;;;;12.70;5.37;;;;;;;;;;5050372;28;20193;-66
2022/04/12 07:26:36;;;;;;;6.97;2.87;;;;;;;;;;5048953;28;20282;-66
2022/04/12 07:29:20;;;;;;;4.57;1.80;;;;;;;;;;5049812;28;20186;-66
2022/04/12 07:31:47;;;;;;;6.87;1.73;;;;;;;;;;5048904;28;20195;-66
2022/04/12 07:34:14;;;;;;;8.10;2.20;;;;;;;;;;5050357;28;20194;-66
2022/04/12 07:36:47;;;;;;;4.80;1.67;;;;;;;;;;5048665;28;20286;-66
2022/04/12 07:39:15;;;;;;;3.10;1.73;;;;;;;;;;5047542;28;20178;-66
2022/04/12 07:41:59;;;;;;;5.97;2.00;;;;;;;;;;5030219;28;20180;-66
2022/04/12 07:44:26;;;;;;;9.67;2.40;;;;;;;;;;5030114;28;20191;-66
2022/04/12 07:47:10;;;;;;;5.37;2.00;;;;;;;;;;5029954;28;20167;-66
2022/04/12 07:49:39;;;;;;;7.03;2.10;;;;;;;;;;5028558;28;20913;-66
2022/04/12 07:52:06;;;;;;;5.60;2.20;;;;;;;;;;5029929;28;20993;-66
2022/04/12 07:54:32;;;;;;;6.10;2.37;;;;;;;;;;5030058;28;20183;-66
2022/04/12 07:56:59;;;;;;;6.57;2.30;;;;;;;;;;5029852;28;20200;-67
2022/04/12 07:59:26;;;;;;;5.13;2.00;;;;;;;;;;5029839;28;20215;-66
2022/04/12 08:01:52;;;;;;;4.47;1.83;;;;;;;;;;5028480;28;20735;-66
2022/04/12 08:04:19;;;;;;;5.13;1.80;;;;;;;;;;5029548;28;20296;-66
2022/04/12 08:06:46;;;;;;;4.40;1.40;;;;;;;;;;5029373;28;20196;-67
2022/04/12 08:09:13;;;;;;;3.33;1.10;;;;;;;;;;5029593;28;20705;-66
2022/04/12 08:11:39;;;;;;;3.47;1.50;;;;;;;;;;5028958;28;20246;-66
2022/04/12 08:14:24;;;;;;;5.50;1.53;;;;;;;;;;5029157;28;20179;-66
2022/04/12 08:16:52;;;;;;;6.37;1.73;;;;;;;;;;5029338;28;20202;-66
2022/04/12 08:19:36;;;;;;;5.37;2.00;;;;;;;;;;5029531;28;20666;-67
2022/04/12 08:22:04;;;;;;;4.70;1.77;;;;;;;;;;5029249;28;20669;-67
2022/04/12 08:24:48;;;;;;;3.90;1.80;;;;;;;;;;5029344;28;20171;-67
2022/04/12 08:27:16;;;;;;;4.03;1.50;;;;;;;;;;5027823;28;20196;-67
2022/04/12 08:29:44;;;;;;;5.17;1.67;;;;;;;;;;5027672;28;20203;-66
2022/04/12 08:32:11;;;;;;;5.10;1.80;;;;;;;;;;5027712;28;20191;-66
2022/04/12 08:34:38;;;;;;;3.40;1.47;;;;;;;;;;5028946;28;20238;-66
2022/04/12 08:37:07;;;;;;;4.67;1.57;;;;;;;;;;5028975;28;20631;-67
2022/04/12 08:39:34;;;;;;;6.83;1.97;;;;;;;;;;5034281;28;20715;-67
2022/04/12 08:42:01;;;;;;;6.50;1.70;;;;;;;;;;5048793;28;20187;-67
2022/04/12 08:44:28;;;;;;;3.00;1.57;;;;;;;;;;5048873;28;20202;-67
2022/04/12 08:46:55;;;;;;;3.70;1.60;;;;;;;;;;5047603;28;20175;-67
2022/04/12 08:49:22;;;;;;;3.43;1.60;;;;;;;;;;5048784;28;20321;-67
2022/04/12 08:52:11;;;;;;;5.23;1.93;;;;;;;;;;5048728;28;20167;-67
2022/04/12 08:54:38;;;;;;;4.63;1.50;;;;;;;;;;5048863;28;20195;-67
2022/04/12 08:57:22;;;;;;;3.07;1.20;;;;;;;;;;5048550;28;20167;-67
2022/04/12 08:59:48;;;;;;;3.20;1.20;;;;;;;;;;5048435;28;20190;-67
2022/04/12 09:02:15;;;;;;;5.50;1.80;;;;;;;;;;5048462;28;20642;-70
2022/04/12 09:04:42;;;;;;;4.57;1.43;;;;;;;;;;5048476;28;20187;-74
2022/04/12 09:07:09;;;;;;;3.63;1.30;;;;;;;;;;5048604;28;20670;-54
2022/04/12 09:09:37;;;;;;;4.23;1.30;;;;;;;;;;5048151;28;20214;-53
2022/04/12 09:12:06;;;;;;;4.17;1.40;;;;;;;;;;5047989;28;20558;-52
2022/04/12 09:14:56;;;;;;;2.37;1.20;;;;;;;;;;5048370;28;20183;-54
2022/04/12 09:17:35;;;;;;;3.97;1.20;;;;;;;;;;5047908;28;20265;-51
2022/04/12 09:20:03;;;;;;;2.70;1.30;;;;;;;;;;5040881;28;20976;-67
2022/04/12 09:22:31;;;;;;;3.00;1.20;;;;;;;;;;5041576;28;20266;-71
2022/04/12 09:24:59;;;;;;;3.13;1.40;;;;;;;;;;5041557;28;20205;-66
2022/04/12 09:27:26;;;;;;;3.37;1.40;;;;;;;;;;5039480;28;20194;-65
2022/04/12 09:29:59;;;;;;;4.43;1.50;;;;;;;;;;5040709;28;20203;-67
2022/04/12 09:32:27;;;;;;;2.53;1.30;;;;;;;;;;5038808;28;20866;-69
2022/04/12 09:34:54;;;;;;;2.30;1.20;;;;;;;;;;5037926;28;20272;-67
2022/04/12 09:37:28;;;;;;;4.60;1.37;;;;;;;;;;5039587;28;20254;-66
2022/04/12 09:39:59;;;;;;;3.17;1.10;;;;;;;;;;5038644;28;20202;-68
2022/04/12 09:42:36;;;;;;;3.83;1.27;;;;;;;;;;5040719;28;20228;-67
2022/04/12 09:45:22;;;;;;;2.37;1.00;;;;;;;;;;5040737;28;20179;-68
2022/04/12 09:48:01;;;;;;;4.90;0.90;;;;;;;;;;5040001;28;20237;-68
2022/04/12 09:50:49;;;;;;;3.77;1.17;;;;;;;;;;5040911;28;20206;-68
2022/04/12 09:53:16;;;;;;;3.10;0.90;;;;;;;;;;5041174;28;20191;-68
2022/04/12 09:55:44;;;;;;;3.70;1.20;;;;;;;;;;5041118;28;20249;-69
2022/04/12 09:58:12;;;;;;;2.10;1.07;;;;;;;;;;5039153;28;20199;-69
2022/04/12 10:00:41;;;;;;;3.70;1.30;;;;;;;;;;5040949;28;20199;-69
2022/04/12 10:03:10;;;;;;;3.50;1.37;;;;;;;;;;5042106;28;20198;-70
2022/04/12 10:05:36;;;;;;;2.63;0.90;;;;;;;;;;5042121;28;20206;-68
2022/04/12 10:08:04;;;;;;;2.57;1.10;;;;;;;;;;5040835;28;20204;-69
2022/04/12 10:10:31;;;;;;;2.30;0.90;;;;;;;;;;5041810;28;20201;-70
2022/04/12 10:12:59;;;;;;;3.00;0.90;;;;;;;;;;5041903;28;20187;-69
2022/04/12 10:15:27;;;;;;;2.50;1.00;;;;;;;;;;5040585;28;20209;-70
2022/04/12 10:17:54;;;;;;;2.47;0.93;;;;;;;;;;5039643;28;20199;-70
2022/04/12 10:20:21;;;;;;;2.23;0.70;;;;;;;;;;5040164;28;20274;-72
2022/04/12 10:22:48;;;;;;;2.10;0.70;;;;;;;;;;5023765;28;20201;-69
2022/04/12 10:25:16;;;;;;;2.70;0.93;;;;;;;;;;5039818;28;20234;-69
2022/04/12 10:27:43;;;;;;;1.70;1.00;;;;;;;;;;5038995;28;20211;-70
2022/04/12 10:30:21;;;;;;;1.67;0.80;;;;;;;;;;5041735;28;20293;-70
2022/04/12 10:32:59;;;;;;;9.43;1.67;;;;;;;;;;5038709;28;20670;-70
2022/04/12 10:35:27;;;;;;;2.63;1.10;;;;;;;;;;5042870;28;20225;-69
2022/04/12 10:38:11;;;;;;;4.87;1.10;;;;;;;;;;5043651;28;20579;-69
2022/04/12 10:40:44;;;;;;;3.50;1.37;;;;;;;;;;5042657;28;20206;-70
2022/04/12 10:43:11;;;;;;;15.20;1.83;;;;;;;;;;5043942;28;20282;-71
2022/04/12 10:45:45;;;;;;;2.50;1.00;;;;;;;;;;5043650;28;20187;-72
2022/04/12 10:48:30;;;;;;;3.23;0.93;;;;;;;;;;5042303;28;20733;-70
2022/04/12 10:51:00;;;;;;;2.17;0.90;;;;;;;;;;5042223;28;20218;-68
2022/04/12 10:53:40;;;;;;;5.10;1.17;;;;;;;;;;5045218;28;20223;-70
2022/04/12 10:56:11;;;;;;;2.83;1.03;;;;;;;;;;5039877;28;20564;-81
2022/04/12 10:58:38;;;;;;;2.20;0.83;;;;;;;;;;5044699;28;20195;-69
2022/04/12 11:01:05;;;;;;;7.03;1.23;;;;;;;;;;5044004;28;20222;-69
2022/04/12 11:03:41;;;;;;;3.50;0.97;;;;;;;;;;5043995;28;20187;-64
2022/04/12 11:06:27;;;;;;;2.90;1.10;;;;;;;;;;5042509;28;20210;-69
2022/04/12 11:08:56;;;;;;;4.20;2.00;;;;;;;;;;5044367;28;20218;-69
2022/04/12 11:11:39;;;;;;;2.40;1.00;;;;;;;;;;5041845;28;20183;-68
2022/04/12 11:14:24;;;;;;;3.63;1.00;;;;;;;;;;5043033;28;22294;-68
2022/04/12 11:16:54;;;;;;;3.17;1.20;;;;;;;;;;5041670;28;20194;-67
2022/04/12 11:19:21;;;;;;;2.73;1.00;;;;;;;;;;5042600;28;20186;-66
2022/04/12 11:21:55;;;;;;;2.50;1.30;;;;;;;;;;5042059;28;20206;-70
2022/04/12 11:24:22;;;;;;;1.93;1.20;;;;;;;;;;5043056;28;20194;-72
2022/04/12 11:27:01;;;;;;;2.13;1.10;;;;;;;;;;5025796;28;20191;-69
2022/04/12 11:29:28;;;;;;;2.13;1.10;;;;;;;;;;5043794;28;20904;-67
2022/04/12 11:31:55;;;;;;;5.00;1.37;;;;;;;;;;5044535;28;20305;-67
2022/04/12 11:34:23;;;;;;;3.47;1.30;;;;;;;;;;5043608;28;20206;-67
2022/04/12 11:36:50;;;;;;;2.07;1.30;;;;;;;;;;5043513;28;20658;-70
2022/04/12 11:39:20;;;;;;;2.87;1.10;;;;;;;;;;5042714;28;20601;-71
2022/04/12 11:41:50;;;;;;;6.47;2.50;;;;;;;;;;5043797;28;20194;-68
2022/04/12 11:44:34;;;;;;;5.30;2.10;;;;;;;;;;5043519;28;20305;-67
2022/04/12 11:47:05;;;;;;;5.30;2.10;;;;;;;;;;5040979;28;20205;-72
2022/04/12 11:49:49;;;;;;;7.20;1.90;;;;;;;;;;5042709;28;20209;-71
2022/04/12 11:52:16;;;;;;;6.30;2.03;;;;;;;;;;5043706;28;20274;-69
2022/04/12 11:54:47;;;;;;;4.13;1.70;;;;;;;;;;5041115;28;20225;-68
2022/04/12 11:57:15;;;;;;;7.53;2.17;;;;;;;;;;5041960;28;20316;-70
2022/04/12 11:59:46;;;;;;;7.27;2.23;;;;;;;;;;5042322;28;20261;-69
2022/04/12 12:02:14;;;;;;;8.70;2.60;;;;;;;;;;5041352;28;20243;-67
2022/04/12 12:04:45;;;;;;;8.13;2.77;;;;;;;;;;5039637;28;20202;-70
2022/04/12 12:07:13;;;;;;;7.67;2.50;;;;;;;;;;5042228;28;20206;-73
2022/04/12 12:09:51;;;;;;;5.30;2.53;;;;;;;;;;5041411;28;20234;-76
2022/04/12 12:12:18;;;;;;;7.37;2.73;;;;;;;;;;5041671;28;20535;-70
2022/04/12 12:14:45;;;;;;;8.00;3.00;;;;;;;;;;5024195;28;20198;-70
2022/04/12 12:17:18;;;;;;;6.57;3.10;;;;;;;;;;5040751;28;20199;-71
2022/04/12 12:19:45;;;;;;;9.40;3.20;;;;;;;;;;5042268;28;20191;-71
2022/04/12 12:22:34;;;;;;;8.00;3.60;;;;;;;;;;5042625;28;20629;-69
2022/04/12 12:25:03;;;;;;;7.03;3.40;;;;;;;;;;5040465;28;20187;-67
2022/04/12 12:27:31;;;;;;;8.13;3.23;;;;;;;;;;5041119;28;20206;-70
2022/04/12 12:30:01;;;;;;;7.87;3.57;;;;;;;;;;5024636;28;20210;-74
2022/04/12 12:32:31;;;;;;;6.50;3.23;;;;;;;;;;5042355;28;20585;-73
2022/04/12 12:35:02;;;;;;;10.10;3.40;;;;;;;;;;5024225;28;20191;-72
2022/04/12 12:37:29;;;;;;;7.20;2.90;;;;;;;;;;5041123;28;20226;-70
2022/04/12 12:39:56;;;;;;;9.37;3.10;;;;;;;;;;5040919;28;21143;-72
2022/04/12 12:42:24;;;;;;;9.93;3.23;;;;;;;;;;5040144;28;20282;-73
2022/04/12 12:44:50;;;;;;;7.00;3.30;;;;;;;;;;5041220;28;20658;-71
2022/04/12 12:47:19;;;;;;;16.67;4.13;;;;;;;;;;5042297;28;20217;-71
2022/04/12 12:49:46;;;;;;;5.63;3.30;;;;;;;;;;5024088;28;20687;-73
2022/04/12 12:52:17;;;;;;;8.20;2.80;;;;;;;;;;5041231;28;20210;-70
2022/04/12 12:54:53;;;;;;;8.53;3.40;;;;;;;;;;5041100;28;20285;-72
2022/04/12 12:57:34;;;;;;;7.90;3.33;;;;;;;;;;5023829;28;20209;-69
2022/04/12 13:00:04;;;;;;;8.63;3.10;;;;;;;;;;5042113;28;20378;-74
2022/04/12 13:02:34;;;;;;;5.43;2.60;;;;;;;;;;5041392;28;20230;-70
2022/04/12 13:05:03;;;;;;;12.37;3.07;;;;;;;;;;5040374;28;20222;-68
2022/04/12 13:07:33;;;;;;;11.70;3.17;;;;;;;;;;5040563;28;20266;-70
2022/04/12 13:10:13;;;;;;;4.63;2.90;;;;;;;;;;5040048;28;20230;-73
2022/04/12 13:12:40;;;;;;;7.20;3.40;;;;;;;;;;5039403;28;21014;-70
2022/04/12 13:15:07;;;;;;;9.63;3.70;;;;;;;;;;5039236;28;20222;-73
2022/04/12 13:17:35;;;;;;;7.80;3.10;;;;;;;;;;5023741;28;20626;-73
2022/04/12 13:20:12;;;;;;;4.77;3.07;;;;;;;;;;5007460;28;20281;-70
2022/04/12 13:22:56;;;;;;;8.93;3.17;;;;;;;;;;5039678;28;20179;-72
2022/04/12 13:25:23;;;;;;;7.70;2.73;;;;;;;;;;5039834;28;20915;-70
2022/04/12 13:27:51;;;;;;;7.03;3.00;;;;;;;;;;5039838;28;20206;-73
2022/04/12 13:30:18;;;;;;;6.87;2.80;;;;;;;;;;5040891;28;20310;-72
2022/04/12 13:32:45;;;;;;;6.20;2.57;;;;;;;;;;5046800;28;20965;-73
2022/04/12 13:35:18;;;;;;;5.40;2.77;;;;;;;;;;5048012;28;20288;-73
2022/04/12 13:37:45;;;;;;;6.53;2.80;;;;;;;;;;5047894;28;20230;-73
2022/04/12 13:40:17;;;;;;;6.73;2.70;;;;;;;;;;5048470;28;20213;-73
2022/04/12 13:42:47;;;;;;;5.77;2.70;;;;;;;;;;5047980;28;20191;-73
2022/04/12 13:45:14;;;;;;;12.60;3.37;;;;;;;;;;5048473;28;20190;-72
2022/04/12 13:47:42;;;;;;;10.13;3.73;;;;;;;;;;5046717;28;20190;-73
2022/04/12 13:50:09;;;;;;;9.90;3.40;;;;;;;;;;5046622;28;20260;-73
2022/04/12 13:52:36;;;;;;;7.07;3.10;;;;;;;;;;5046705;28;20190;-72
2022/04/12 13:55:03;;;;;;;10.03;4.87;;;;;;;;;;5046831;28;20210;-72
2022/04/12 13:57:30;;;;;;;26.73;10.53;;;;;;;;;;5047090;28;20233;-72
2022/04/12 13:59:57;;;;;;;6.73;2.77;;;;;;;;;;5048273;28;20646;-72
2022/04/12 14:02:23;;;;;;;5.37;2.47;;;;;;;;;;5047494;28;20286;-71
2022/04/12 14:04:51;;;;;;;9.47;3.83;;;;;;;;;;5047832;28;20194;-71
2022/04/12 14:07:18;;;;;;;14.30;7.10;;;;;;;;;;5048437;28;20589;-70
2022/04/12 14:09:44;;;;;;;6.57;2.80;;;;;;;;;;5049223;28;20581;-70
2022/04/12 14:12:11;;;;;;;6.63;2.63;;;;;;;;;;5052277;28;20228;-70
2022/04/12 14:14:56;;;;;;;6.20;2.67;;;;;;;;;;5051952;28;20175;-71
2022/04/12 14:17:22;;;;;;;10.13;2.80;;;;;;;;;;5050545;28;20194;-70
2022/04/12 14:20:07;;;;;;;7.83;3.23;;;;;;;;;;5051866;28;20174;-71
2022/04/12 14:22:35;;;;;;;7.47;3.77;;;;;;;;;;5050404;28;20219;-70
2022/04/12 14:25:02;;;;;;;9.20;3.10;;;;;;;;;;5051913;28;20191;-71
2022/04/12 14:27:29;;;;;;;9.23;4.90;;;;;;;;;;5033728;28;20285;-72
2022/04/12 14:29:56;;;;;;;6.33;2.40;;;;;;;;;;5051502;28;20222;-71
2022/04/12 14:32:25;;;;;;;4.00;2.13;;;;;;;;;;5051282;28;20213;-70
2022/04/12 14:34:52;;;;;;;6.33;2.37;;;;;;;;;;5051183;28;20973;-70
2022/04/12 14:37:20;;;;;;;4.93;2.13;;;;;;;;;;5050136;28;20321;-70
2022/04/12 14:39:46;;;;;;;5.70;2.50;;;;;;;;;;5042900;28;20542;-70
2022/04/12 14:42:13;;;;;;;6.17;2.10;;;;;;;;;;5031530;28;20266;-70
2022/04/12 14:44:41;;;;;;;11.13;2.80;;;;;;;;;;5029839;28;20191;-70
2022/04/12 14:47:08;;;;;;;7.63;2.67;;;;;;;;;;5031204;28;20187;-69
2022/04/12 14:49:38;;;;;;;7.80;2.80;;;;;;;;;;5029617;28;20211;-69
2022/04/12 14:52:06;;;;;;;7.63;3.00;;;;;;;;;;5031564;28;20675;-69
2022/04/12 14:54:33;;;;;;;4.13;2.10;;;;;;;;;;5013632;28;20275;-70
2022/04/12 14:57:00;;;;;;;6.60;2.60;;;;;;;;;;5031017;28;20204;-69
2022/04/12 14:59:27;;;;;;;8.20;2.70;;;;;;;;;;5030611;28;20203;-69
2022/04/12 15:01:54;;;;;;;9.00;3.10;;;;;;;;;;5031084;28;20190;-69
2022/04/12 15:04:22;;;;;;;5.77;2.80;;;;;;;;;;5031003;28;20194;-68
2022/04/12 15:06:48;;;;;;;6.17;2.33;;;;;;;;;;5029346;28;20600;-69
2022/04/12 15:09:33;;;;;;;4.70;2.20;;;;;;;;;;5031064;28;20570;-70
2022/04/12 15:11:59;;;;;;;7.10;2.20;;;;;;;;;;5030891;28;20196;-68
2022/04/12 15:14:27;;;;;;;5.87;2.20;;;;;;;;;;5030942;28;20265;-69
2022/04/12 15:16:54;;;;;;;9.33;2.37;;;;;;;;;;5031128;28;20239;-69
2022/04/12 15:19:21;;;;;;;6.23;2.20;;;;;;;;;;5029487;28;20190;-70
2022/04/12 15:22:05;;;;;;;6.87;2.07;;;;;;;;;;5028480;28;20183;-69
2022/04/12 15:24:32;;;;;;;8.70;2.47;;;;;;;;;;5030795;28;20566;-70
2022/04/12 15:27:16;;;;;;;6.20;2.53;;;;;;;;;;5030604;28;20182;-69